Station Historical Data
Daily Summary for February 6, 2017 Units:  English    Metric   Both
« Previous Day
Next Day »
Daily Weekly Monthly Yearly Custom
  High: Low: Average:
Temperature: 36.3 °F 19.9 °F 29 °F
Dew Point: 26.2 °F 14.5 °F 21.1 °F
Humidity: 82% 63% 72%
Wind Speed: 11.0mph 0.0mph 2.6mph
Wind Gust: 15.0mph - -
Wind- - SW
Pressure: 30.16 in 29.91 in -
Precipitation: 0.00 in    
Historical Graphs
 
 
Tabular Data for February 6, 2017
Time Temperature Dew Point Pressure Wind Wind Speed Wind Gust Humidity Rainfall Rate (Hourly)
00:04 28.4 °F 19.5 °F 30.07 in West 5.0 mph 12.0 mph 69% 0.00 in
00:09 28.3 °F 19.4 °F 30.07 in WNW 5.0 mph 10.0 mph 69% 0.00 in
00:14 28.0 °F 19.1 °F 30.07 in WNW 5.0 mph 10.0 mph 69% 0.00 in
00:19 27.7 °F 19.2 °F 30.07 in WNW 5.0 mph 11.0 mph 70% 0.00 in
00:24 27.5 °F 19.0 °F 30.07 in West 2.0 mph 7.0 mph 70% 0.00 in
00:29 27.1 °F 18.9 °F 30.07 in WNW 4.0 mph 8.0 mph 71% 0.00 in
00:34 27.1 °F 18.9 °F 30.07 in WNW 5.0 mph 11.0 mph 71% 0.00 in
00:39 27.0 °F 18.8 °F 30.08 in WNW 4.0 mph 11.0 mph 71% 0.00 in
00:44 26.8 °F 18.7 °F 30.08 in West 5.0 mph 8.0 mph 71% 0.00 in
00:49 26.6 °F 18.5 °F 30.08 in WNW 5.0 mph 6.0 mph 71% 0.00 in
00:54 26.3 °F 18.5 °F 30.08 in WNW 2.0 mph 5.0 mph 72% 0.00 in
00:59 26.3 °F 18.5 °F 30.08 in West 3.0 mph 7.0 mph 72% 0.00 in
01:04 26.2 °F 18.4 °F 30.08 in West 4.0 mph 7.0 mph 72% 0.00 in
01:09 26.1 °F 18.3 °F 30.09 in West 4.0 mph 7.0 mph 72% 0.00 in
01:14 26.1 °F 18.3 °F 30.09 in West 4.0 mph 7.0 mph 72% 0.00 in
01:19 26.0 °F 18.2 °F 30.09 in WNW 6.0 mph 8.0 mph 72% 0.00 in
01:24 25.9 °F 18.4 °F 30.09 in WNW 3.0 mph 6.0 mph 73% 0.00 in
01:29 25.7 °F 18.2 °F 30.09 in West 4.0 mph 6.0 mph 73% 0.00 in
01:34 25.6 °F 18.5 °F 30.09 in West 4.0 mph 6.0 mph 74% 0.00 in
01:39 25.6 °F 18.5 °F 30.09 in West 3.0 mph 7.0 mph 74% 0.00 in
01:44 25.5 °F 18.4 °F 30.09 in West 3.0 mph 7.0 mph 74% 0.00 in
01:49 25.2 °F 18.1 °F 30.09 in WSW 2.0 mph 4.0 mph 74% 0.00 in
01:54 25.2 °F 18.4 °F 30.09 in West 2.0 mph 7.0 mph 75% 0.00 in
01:59 25.2 °F 18.4 °F 30.09 in West 1.0 mph 6.0 mph 75% 0.00 in
02:04 25.1 °F 18.3 °F 30.10 in West 2.0 mph 4.0 mph 75% 0.00 in
02:09 25.0 °F 18.2 °F 30.09 in West 2.0 mph 4.0 mph 75% 0.00 in
02:14 25.0 °F 18.2 °F 30.09 in West 2.0 mph 5.0 mph 75% 0.00 in
02:19 24.8 °F 18.0 °F 30.09 in West 2.0 mph 5.0 mph 75% 0.00 in
02:24 24.5 °F 17.7 °F 30.10 in West 2.0 mph 5.0 mph 75% 0.00 in
02:29 24.1 °F 17.3 °F 30.10 in WNW 1.0 mph 4.0 mph 75% 0.00 in
02:34 24.1 °F 17.6 °F 30.10 in West 2.0 mph 7.0 mph 76% 0.00 in
02:39 24.1 °F 17.6 °F 30.10 in West 2.0 mph 7.0 mph 76% 0.00 in
02:44 24.2 °F 17.4 °F 30.10 in West 2.0 mph 6.0 mph 75% 0.00 in
02:49 23.9 °F 17.1 °F 30.11 in West 1.0 mph 5.0 mph 75% 0.00 in
02:54 23.8 °F 17.0 °F 30.10 in WNW 4.0 mph 4.0 mph 75% 0.00 in
02:59 23.8 °F 17.0 °F 30.11 in West 1.0 mph 4.0 mph 75% 0.00 in
03:04 23.7 °F 16.9 °F 30.11 in West 1.0 mph 4.0 mph 75% 0.00 in
03:09 23.7 °F 16.9 °F 30.11 in West 2.0 mph 4.0 mph 75% 0.00 in
03:14 23.5 °F 16.7 °F 30.11 in West 1.0 mph 4.0 mph 75% 0.00 in
03:19 23.4 °F 16.6 °F 30.12 in West 2.0 mph 5.0 mph 75% 0.00 in
03:24 23.4 °F 16.6 °F 30.12 in WNW 2.0 mph 5.0 mph 75% 0.00 in
03:29 23.5 °F 16.7 °F 30.11 in WNW 1.0 mph 4.0 mph 75% 0.00 in
03:34 23.4 °F 16.6 °F 30.11 in WNW 4.0 mph 5.0 mph 75% 0.00 in
03:39 23.4 °F 16.3 °F 30.11 in WNW 2.0 mph 4.0 mph 74% 0.00 in
03:44 23.1 °F 16.0 °F 30.11 in WNW 2.0 mph 4.0 mph 74% 0.00 in
03:49 22.7 °F 15.7 °F 30.12 in WNW 1.0 mph 3.0 mph 74% 0.00 in
03:54 22.5 °F 15.8 °F 30.12 in Calm   3.0 mph 75% 0.00 in
03:59 22.5 °F 15.8 °F 30.11 in Calm   2.0 mph 75% 0.00 in
04:04 22.2 °F 15.5 °F 30.11 in Calm   3.0 mph 75% 0.00 in
04:09 21.8 °F 15.1 °F 30.11 in West 1.0 mph 1.0 mph 75% 0.00 in
04:14 21.2 °F 14.8 °F 30.11 in West 1.0 mph 2.0 mph 76% 0.00 in
04:19 20.7 °F 14.9 °F 30.11 in Calm   2.0 mph 78% 0.00 in
04:24 20.3 °F 14.5 °F 30.12 in Calm     78% 0.00 in
04:29 20.3 °F 14.8 °F 30.11 in Calm     79% 0.00 in
04:34 20.4 °F 14.9 °F 30.11 in Calm     79% 0.00 in
04:39 20.8 °F 15.3 °F 30.10 in Calm     79% 0.00 in
04:44 21.0 °F 15.2 °F 30.10 in Calm     78% 0.00 in
04:49 20.9 °F 15.1 °F 30.11 in Calm     78% 0.00 in
04:54 20.9 °F 15.4 °F 30.11 in Calm     79% 0.00 in
04:59 20.9 °F 15.4 °F 30.11 in Calm     79% 0.00 in
05:04 20.9 °F 15.4 °F 30.10 in Calm     79% 0.00 in
05:09 20.7 °F 15.2 °F 30.12 in Calm     79% 0.00 in
05:14 20.4 °F 15.2 °F 30.11 in Calm     80% 0.00 in
05:19 20.2 °F 15.0 °F 30.11 in Calm     80% 0.00 in
05:24 20.1 °F 15.2 °F 30.11 in Calm     81% 0.00 in
05:29 19.9 °F 15.0 °F 30.11 in Calm     81% 0.00 in
05:34 19.9 °F 15.3 °F 30.12 in Calm     82% 0.00 in
05:39 20.1 °F 15.5 °F 30.12 in Calm     82% 0.00 in
05:44 20.2 °F 15.6 °F 30.13 in Calm     82% 0.00 in
05:49 20.3 °F 15.7 °F 30.13 in Calm     82% 0.00 in
05:54 20.7 °F 16.1 °F 30.12 in Calm     82% 0.00 in
05:59 21.4 °F 16.5 °F 30.11 in Calm   2.0 mph 81% 0.00 in
06:04 21.6 °F 16.4 °F 30.12 in Calm   2.0 mph 80% 0.00 in
06:09 21.5 °F 16.3 °F 30.13 in Calm   2.0 mph 80% 0.00 in
06:14 21.6 °F 16.4 °F 30.13 in Calm   2.0 mph 80% 0.00 in
06:19 21.7 °F 16.5 °F 30.12 in Calm   2.0 mph 80% 0.00 in
06:24 21.7 °F 16.2 °F 30.12 in Calm     79% 0.00 in
06:29 21.5 °F 16.0 °F 30.12 in Calm     79% 0.00 in
06:34 21.6 °F 16.1 °F 30.13 in Calm     79% 0.00 in
06:39 21.7 °F 16.2 °F 30.14 in Calm     79% 0.00 in
06:44 22.1 °F 16.6 °F 30.14 in West 1.0 mph 2.0 mph 79% 0.00 in
06:49 22.3 °F 17.1 °F 30.15 in Calm   1.0 mph 80% 0.00 in
06:54 23.0 °F 17.5 °F 30.15 in West 3.0 mph 4.0 mph 79% 0.00 in
06:59 23.6 °F 17.1 °F 30.15 in Calm   4.0 mph 76% 0.00 in
07:04 24.0 °F 17.2 °F 30.14 in WNW 1.0 mph 4.0 mph 75% 0.00 in
07:09 24.4 °F 17.3 °F 30.15 in WNW 1.0 mph 4.0 mph 74% 0.00 in
07:14 24.6 °F 17.5 °F 30.15 in West 2.0 mph 4.0 mph 74% 0.00 in
07:19 24.7 °F 17.6 °F 30.15 in West 2.0 mph 4.0 mph 74% 0.00 in
07:24 24.8 °F 17.4 °F 30.15 in WNW 2.0 mph 4.0 mph 73% 0.00 in
07:29 25.0 °F 17.6 °F 30.15 in Calm   3.0 mph 73% 0.00 in
07:34 25.1 °F 17.7 °F 30.15 in WNW 1.0 mph 3.0 mph 73% 0.00 in
07:39 25.1 °F 17.7 °F 30.14 in WNW 1.0 mph 4.0 mph 73% 0.00 in
07:44 25.2 °F 17.8 °F 30.14 in WNW 2.0 mph 3.0 mph 73% 0.00 in
07:49 25.3 °F 18.2 °F 30.15 in Calm   3.0 mph 74% 0.00 in
07:54 25.3 °F 17.9 °F 30.14 in Calm   2.0 mph 73% 0.00 in
07:59 25.5 °F 18.0 °F 30.14 in Calm   2.0 mph 73% 0.00 in
08:04 25.5 °F 18.0 °F 30.14 in Calm   2.0 mph 73% 0.00 in
08:09 25.7 °F 18.2 °F 30.14 in WNW 3.0 mph 3.0 mph 73% 0.00 in
08:14 25.8 °F 18.3 °F 30.14 in WNW 1.0 mph 3.0 mph 73% 0.00 in
08:19 25.9 °F 18.4 °F 30.15 in WNW 1.0 mph 3.0 mph 73% 0.00 in
08:24 26.0 °F 18.2 °F 30.15 in NW 1.0 mph 3.0 mph 72% 0.00 in
08:29 26.1 °F 18.3 °F 30.15 in NW 1.0 mph 3.0 mph 72% 0.00 in
08:34 26.4 °F 18.9 °F 30.15 in NW 1.0 mph 3.0 mph 73% 0.00 in
08:39 26.7 °F 18.6 °F 30.15 in WNW 2.0 mph 3.0 mph 71% 0.00 in
08:44 26.9 °F 18.7 °F 30.15 in West 2.0 mph 4.0 mph 71% 0.00 in
08:49 27.1 °F 18.3 °F 30.15 in WSW 3.0 mph 5.0 mph 69% 0.00 in
08:54 27.2 °F 18.4 °F 30.16 in WNW 3.0 mph 4.0 mph 69% 0.00 in
08:59 27.2 °F 18.0 °F 30.16 in WNW 5.0 mph 5.0 mph 68% 0.00 in
09:04 27.3 °F 18.5 °F 30.15 in WNW 2.0 mph 5.0 mph 69% 0.00 in
09:09 27.6 °F 18.1 °F 30.15 in West 2.0 mph 3.0 mph 67% 0.00 in
09:14 27.8 °F 18.3 °F 30.15 in WNW 1.0 mph 3.0 mph 67% 0.00 in
09:19 27.9 °F 18.0 °F 30.15 in West 2.0 mph 4.0 mph 66% 0.00 in
09:24 27.9 °F 17.6 °F 30.15 in WSW 2.0 mph 5.0 mph 65% 0.00 in
09:29 28.1 °F 17.8 °F 30.15 in West 2.0 mph 5.0 mph 65% 0.00 in
09:34 28.3 °F 18.4 °F 30.15 in WSW 2.0 mph 5.0 mph 66% 0.00 in
09:39 28.5 °F 18.2 °F 30.15 in WSW 2.0 mph 5.0 mph 65% 0.00 in
09:44 28.7 °F 18.4 °F 30.15 in WSW 4.0 mph 8.0 mph 65% 0.00 in
09:49 28.7 °F 18.4 °F 30.15 in West 3.0 mph 6.0 mph 65% 0.00 in
09:54 28.8 °F 18.9 °F 30.15 in WSW 3.0 mph 6.0 mph 66% 0.00 in
09:59 28.7 °F 18.8 °F 30.14 in WSW 3.0 mph 5.0 mph 66% 0.00 in
10:04 29.1 °F 19.2 °F 30.15 in SW 4.0 mph 6.0 mph 66% 0.00 in
10:09 29.2 °F 19.2 °F 30.15 in WSW 5.0 mph 8.0 mph 66% 0.00 in
10:14 29.0 °F 19.4 °F 30.14 in West 2.0 mph 7.0 mph 67% 0.00 in
10:19 29.4 °F 20.1 °F 30.14 in West 3.0 mph 4.0 mph 68% 0.00 in
10:24 29.5 °F 19.9 °F 30.14 in West 4.0 mph 8.0 mph 67% 0.00 in
10:29 29.8 °F 20.5 °F 30.14 in WSW 3.0 mph 8.0 mph 68% 0.00 in
10:34 30.0 °F 20.4 °F 30.14 in WSW 3.0 mph 7.0 mph 67% 0.00 in
10:39 29.9 °F 20.6 °F 30.14 in SW 4.0 mph 9.0 mph 68% 0.00 in
10:44 29.9 °F 20.6 °F 30.14 in SW 5.0 mph 9.0 mph 68% 0.00 in
10:49 30.1 °F 21.2 °F 30.14 in SW 7.0 mph 9.0 mph 69% 0.00 in
10:54 30.4 °F 21.4 °F 30.14 in West 9.0 mph 11.0 mph 69% 0.00 in
10:59 30.3 °F 21.3 °F 30.14 in WSW 6.0 mph 12.0 mph 69% 0.00 in
11:04 30.1 °F 21.2 °F 30.14 in SW 6.0 mph 13.0 mph 69% 0.00 in
11:09 30.0 °F 21.4 °F 30.13 in SSW 3.0 mph 11.0 mph 70% 0.00 in
11:14 30.1 °F 21.8 °F 30.13 in West 8.0 mph 9.0 mph 71% 0.01 in
11:19 30.1 °F 21.8 °F 30.13 in SSW 4.0 mph 9.0 mph 71% 0.01 in
11:24 30.2 °F 21.6 °F 30.13 in WSW 4.0 mph 9.0 mph 70% 0.01 in
11:29 30.4 °F 21.8 °F 30.13 in WSW 5.0 mph 12.0 mph 70% 0.01 in
11:34 30.4 °F 21.4 °F 30.13 in WSW 7.0 mph 12.0 mph 69% 0.01 in
11:39 30.5 °F 21.9 °F 30.12 in SSW 6.0 mph 12.0 mph 70% 0.01 in
11:44 30.9 °F 22.6 °F 30.12 in SSW 5.0 mph 11.0 mph 71% 0.01 in
11:49 31.1 °F 22.5 °F 30.12 in SW 5.0 mph 10.0 mph 70% 0.01 in
11:54 31.1 °F 22.5 °F 30.12 in SW 5.0 mph 9.0 mph 70% 0.01 in
11:59 31.1 °F 22.5 °F 30.12 in SW 5.0 mph 10.0 mph 70% 0.01 in
12:04 31.0 °F 22.4 °F 30.12 in SW 6.0 mph 10.0 mph 70% 0.01 in
12:09 31.1 °F 22.5 °F 30.11 in WSW 4.0 mph 13.0 mph 70% 0.01 in
12:14 31.2 °F 22.2 °F 30.11 in SW 8.0 mph 9.0 mph 69% 0.01 in
12:19 31.3 °F 22.3 °F 30.11 in SW 5.0 mph 10.0 mph 69% 0.01 in
12:24 31.3 °F 22.3 °F 30.10 in SW 10.0 mph 15.0 mph 69% 0.01 in
12:29 31.3 °F 22.3 °F 30.10 in SSW 6.0 mph 12.0 mph 69% 0.01 in
12:34 31.4 °F 22.4 °F 30.10 in SSW 6.0 mph 13.0 mph 69% 0.01 in
12:39 31.8 °F 22.4 °F 30.09 in SW 9.0 mph 12.0 mph 68% 0.01 in
12:44 32.1 °F 22.7 °F 30.09 in SW 6.0 mph 12.0 mph 68% 0.01 in
12:49 32.1 °F 22.4 °F 30.08 in SW 6.0 mph 14.0 mph 67% 0.01 in
12:54 32.3 °F 22.6 °F 30.08 in WSW 6.0 mph 14.0 mph 67% 0.01 in
12:59 32.4 °F 22.3 °F 30.07 in SW 6.0 mph 11.0 mph 66% 0.01 in
13:04 32.3 °F 21.8 °F 30.07 in SW 7.0 mph 11.0 mph 65% 0.01 in
13:09 32.7 °F 22.6 °F 30.07 in WSW 5.0 mph 9.0 mph 66% 0.01 in
13:14 32.8 °F 22.3 °F 30.07 in SSW 7.0 mph 9.0 mph 65% 0.00 in
13:19 32.8 °F 22.7 °F 30.07 in SW 2.0 mph 9.0 mph 66% 0.00 in
13:24 33.0 °F 22.5 °F 30.06 in West 5.0 mph 9.0 mph 65% 0.00 in
13:29 33.2 °F 22.3 °F 30.06 in SW 11.0 mph 12.0 mph 64% 0.00 in
13:34 33.2 °F 22.7 °F 30.06 in WSW 2.0 mph 11.0 mph 65% 0.00 in
13:39 33.3 °F 22.4 °F 30.06 in WSW 5.0 mph 12.0 mph 64% 0.00 in
13:44 33.3 °F 22.4 °F 30.06 in WSW 4.0 mph 11.0 mph 64% 0.01 in
13:49 33.3 °F 22.8 °F 30.05 in SW 6.0 mph 13.0 mph 65% 0.01 in
13:54 33.7 °F 23.2 °F 30.06 in WSW 5.0 mph 13.0 mph 65% 0.01 in
13:59 34.0 °F 23.1 °F 30.05 in WSW 5.0 mph 10.0 mph 64% 0.01 in
14:04 34.1 °F 23.6 °F 30.05 in WSW 5.0 mph 10.0 mph 65% 0.01 in
14:09 34.3 °F 23.4 °F 30.04 in WSW 6.0 mph 10.0 mph 64% 0.01 in
14:14 34.6 °F 24.0 °F 30.04 in West 3.0 mph 9.0 mph 65% 0.01 in
14:19 34.7 °F 23.8 °F 30.04 in WSW 5.0 mph 9.0 mph 64% 0.01 in
14:24 35.2 °F 24.6 °F 30.04 in WSW 4.0 mph 9.0 mph 65% 0.01 in
14:29 35.1 °F 24.1 °F 30.04 in WSW 11.0 mph 13.0 mph 64% 0.01 in
14:34 35.5 °F 24.9 °F 30.04 in SW 5.0 mph 11.0 mph 65% 0.01 in
14:39 35.2 °F 24.2 °F 30.04 in West 4.0 mph 11.0 mph 64% 0.01 in
14:44 35.8 °F 25.2 °F 30.04 in SW 6.0 mph 9.0 mph 65% 0.00 in
14:49 35.8 °F 24.8 °F 30.04 in West 7.0 mph 11.0 mph 64% 0.00 in
14:54 36.2 °F 25.2 °F 30.04 in WSW 5.0 mph 11.0 mph 64% 0.00 in
14:59 35.7 °F 24.7 °F 30.04 in WSW 5.0 mph 9.0 mph 64% 0.00 in
15:04 35.6 °F 24.6 °F 30.04 in WSW 5.0 mph 11.0 mph 64% 0.00 in
15:09 35.5 °F 24.5 °F 30.04 in WSW 5.0 mph 11.0 mph 64% 0.00 in
15:14 35.6 °F 24.6 °F 30.04 in WSW 5.0 mph 10.0 mph 64% 0.00 in
15:19 36.1 °F 24.7 °F 30.04 in WSW 3.0 mph 8.0 mph 63% 0.00 in
15:24 36.3 °F 24.9 °F 30.04 in WSW 6.0 mph 8.0 mph 63% 0.00 in
15:29 36.2 °F 25.2 °F 30.04 in West 7.0 mph 8.0 mph 64% 0.00 in
15:34 36.1 °F 25.1 °F 30.04 in WNW 3.0 mph 9.0 mph 64% 0.00 in
15:39 36.2 °F 25.2 °F 30.04 in West 6.0 mph 9.0 mph 64% 0.00 in
15:44 36.3 °F 25.7 °F 30.04 in West 1.0 mph 9.0 mph 65% 0.00 in
15:49 36.3 °F 25.7 °F 30.04 in West 3.0 mph 11.0 mph 65% 0.00 in
15:54 36.1 °F 25.1 °F 30.04 in West 7.0 mph 10.0 mph 64% 0.00 in
15:59 35.8 °F 25.2 °F 30.04 in WSW 6.0 mph 12.0 mph 65% 0.00 in
16:04 36.1 °F 25.5 °F 30.04 in WSW 5.0 mph 12.0 mph 65% 0.00 in
16:09 36.0 °F 25.7 °F 30.04 in WSW 4.0 mph 9.0 mph 66% 0.00 in
16:14 35.8 °F 25.5 °F 30.03 in WSW 4.0 mph 9.0 mph 66% 0.00 in
16:19 35.4 °F 25.5 °F 30.03 in SW 5.0 mph 10.0 mph 67% 0.00 in
16:24 35.4 °F 25.5 °F 30.03 in SW 4.0 mph 10.0 mph 67% 0.00 in
16:29 35.5 °F 26.0 °F 30.03 in SW 3.0 mph 8.0 mph 68% 0.00 in
16:34 35.6 °F 26.1 °F 30.03 in SW 2.0 mph 5.0 mph 68% 0.00 in
16:39 35.4 °F 25.5 °F 30.03 in West 2.0 mph 5.0 mph 67% 0.00 in
16:44 35.2 °F 26.0 °F 30.04 in West 2.0 mph 4.0 mph 69% 0.00 in
16:49 35.1 °F 25.9 °F 30.04 in WNW 2.0 mph 3.0 mph 69% 0.00 in
16:54 35.0 °F 25.5 °F 30.04 in West 4.0 mph 6.0 mph 68% 0.00 in
16:59 34.9 °F 25.8 °F 30.04 in West 1.0 mph 7.0 mph 69% 0.00 in
17:04 35.0 °F 25.9 °F 30.03 in West 3.0 mph 7.0 mph 69% 0.00 in
17:09 34.9 °F 25.8 °F 30.03 in West 2.0 mph 4.0 mph 69% 0.00 in
17:14 34.8 °F 25.7 °F 30.03 in West 2.0 mph 4.0 mph 69% 0.00 in
17:19 34.9 °F 25.8 °F 30.03 in West 2.0 mph 4.0 mph 69% 0.00 in
17:24 34.7 °F 25.9 °F 30.03 in WSW 1.0 mph 4.0 mph 70% 0.00 in
17:29 34.5 °F 26.1 °F 30.03 in WSW 1.0 mph 3.0 mph 71% 0.00 in
17:34 34.2 °F 26.1 °F 30.03 in WSW 2.0 mph 3.0 mph 72% 0.00 in
17:39 33.9 °F 26.2 °F 30.02 in South 3.0 mph 4.0 mph 73% 0.00 in
17:44 33.6 °F 25.9 °F 30.03 in South 3.0 mph 4.0 mph 73% 0.00 in
17:49 33.5 °F 25.8 °F 30.03 in South 1.0 mph 3.0 mph 73% 0.00 in
17:54 33.2 °F 25.8 °F 30.03 in South 2.0 mph 3.0 mph 74% 0.00 in
17:59 33.0 °F 25.6 °F 30.03 in South 2.0 mph 4.0 mph 74% 0.00 in
18:04 32.7 °F 25.3 °F 30.02 in South 1.0 mph 3.0 mph 74% 0.00 in
18:09 32.4 °F 25.4 °F 30.02 in South 2.0 mph 3.0 mph 75% 0.00 in
18:14 32.3 °F 25.3 °F 30.02 in South 2.0 mph 3.0 mph 75% 0.00 in
18:19 32.1 °F 25.1 °F 30.01 in South 1.0 mph 3.0 mph 75% 0.00 in
18:24 31.9 °F 24.9 °F 30.01 in South 1.0 mph 3.0 mph 75% 0.00 in
18:29 31.8 °F 25.1 °F 30.01 in South 1.0 mph 2.0 mph 76% 0.00 in
18:34 31.6 °F 24.9 °F 30.01 in South 1.0 mph 2.0 mph 76% 0.00 in
18:39 31.5 °F 24.8 °F 30.01 in Calm   2.0 mph 76% 0.00 in
18:44 31.4 °F 24.7 °F 30.01 in South 1.0 mph 2.0 mph 76% 0.00 in
18:49 31.2 °F 24.5 °F 30.01 in Calm   2.0 mph 76% 0.00 in
18:54 31.2 °F 24.8 °F 30.00 in Calm     77% 0.00 in
18:59 31.1 °F 24.7 °F 30.00 in Calm     77% 0.00 in
19:04 31.0 °F 24.6 °F 30.00 in Calm     77% 0.00 in
19:09 30.8 °F 24.7 °F 30.00 in Calm     78% 0.00 in
19:14 30.8 °F 24.7 °F 29.99 in Calm     78% 0.00 in
19:19 30.9 °F 24.8 °F 30.00 in Calm     78% 0.00 in
19:24 30.9 °F 24.8 °F 30.00 in Calm     78% 0.00 in
19:29 31.0 °F 24.6 °F 30.00 in Calm     77% 0.00 in
19:34 31.1 °F 24.7 °F 29.99 in Calm     77% 0.00 in
19:39 31.1 °F 24.7 °F 29.99 in Calm     77% 0.00 in
19:44 31.1 °F 24.7 °F 29.99 in Calm     77% 0.00 in
19:49 31.1 °F 24.7 °F 29.99 in Calm   2.0 mph 77% 0.00 in
19:54 31.3 °F 24.9 °F 29.99 in Calm   2.0 mph 77% 0.00 in
19:59 31.4 °F 25.0 °F 29.98 in South 1.0 mph 2.0 mph 77% 0.00 in
20:04 31.4 °F 25.0 °F 29.98 in Calm   2.0 mph 77% 0.00 in
20:09 31.4 °F 24.7 °F 29.98 in Calm     76% 0.00 in
20:14 31.5 °F 24.8 °F 29.98 in South 1.0 mph 2.0 mph 76% 0.00 in
20:19 31.5 °F 24.8 °F 29.98 in South 1.0 mph 2.0 mph 76% 0.00 in
20:24 31.6 °F 24.9 °F 29.98 in South 1.0 mph 3.0 mph 76% 0.00 in
20:29 31.7 °F 24.7 °F 29.97 in South 1.0 mph 3.0 mph 75% 0.00 in
20:34 31.6 °F 24.9 °F 29.97 in Calm     76% 0.00 in
20:39 31.6 °F 24.9 °F 29.97 in Calm     76% 0.00 in
20:44 31.6 °F 24.6 °F 29.97 in Calm     75% 0.00 in
20:49 31.6 °F 24.6 °F 29.97 in Calm     75% 0.00 in
20:54 31.6 °F 24.6 °F 29.97 in Calm     75% 0.00 in
20:59 31.6 °F 24.6 °F 29.96 in Calm     75% 0.00 in
21:04 31.6 °F 24.6 °F 29.96 in Calm     75% 0.00 in
21:09 31.6 °F 24.6 °F 29.96 in Calm     75% 0.00 in
21:14 31.6 °F 24.6 °F 29.96 in NE 2.0 mph 3.0 mph 75% 0.00 in
21:19 31.6 °F 24.6 °F 29.96 in NE 3.0 mph 4.0 mph 75% 0.00 in
21:24 31.6 °F 24.3 °F 29.96 in NE 2.0 mph 4.0 mph 74% 0.00 in
21:29 31.6 °F 24.3 °F 29.96 in NE 2.0 mph 4.0 mph 74% 0.00 in
21:34 31.6 °F 24.3 °F 29.97 in NE 2.0 mph 5.0 mph 74% 0.00 in
21:39 31.6 °F 24.3 °F 29.97 in ENE 1.0 mph 5.0 mph 74% 0.00 in
21:44 31.7 °F 24.4 °F 29.96 in ENE 2.0 mph 5.0 mph 74% 0.00 in
21:49 31.8 °F 24.5 °F 29.97 in ENE 2.0 mph 5.0 mph 74% 0.00 in
21:54 31.8 °F 24.5 °F 29.96 in ENE 3.0 mph 7.0 mph 74% 0.00 in
21:59 31.8 °F 24.1 °F 29.96 in NE 3.0 mph 5.0 mph 73% 0.00 in
22:04 31.8 °F 24.5 °F 29.96 in NE 1.0 mph 3.0 mph 74% 0.00 in
22:09 31.9 °F 24.2 °F 29.96 in ENE 2.0 mph 4.0 mph 73% 0.00 in
22:14 31.9 °F 24.2 °F 29.96 in NE 3.0 mph 5.0 mph 73% 0.00 in
22:19 31.8 °F 24.1 °F 29.96 in NE 3.0 mph 5.0 mph 73% 0.00 in
22:24 31.6 °F 23.9 °F 29.95 in NE 2.0 mph 5.0 mph 73% 0.00 in
22:29 31.4 °F 23.7 °F 29.96 in NE 2.0 mph 4.0 mph 73% 0.00 in
22:34 31.3 °F 24.0 °F 29.95 in NE 2.0 mph 5.0 mph 74% 0.00 in
22:39 31.2 °F 23.9 °F 29.95 in NE 2.0 mph 5.0 mph 74% 0.00 in
22:44 31.0 °F 23.7 °F 29.95 in NE 3.0 mph 5.0 mph 74% 0.00 in
22:49 30.9 °F 23.6 °F 29.95 in NE 3.0 mph 7.0 mph 74% 0.00 in
22:54 31.0 °F 23.7 °F 29.95 in NE 3.0 mph 7.0 mph 74% 0.00 in
22:59 31.0 °F 24.0 °F 29.94 in NE 3.0 mph 5.0 mph 75% 0.00 in
23:04 31.0 °F 23.7 °F 29.94 in NE 3.0 mph 6.0 mph 74% 0.00 in
23:09 30.9 °F 23.6 °F 29.93 in NE 4.0 mph 7.0 mph 74% 0.00 in
23:14 30.9 °F 23.6 °F 29.93 in NE 2.0 mph 7.0 mph 74% 0.00 in
23:19 30.8 °F 23.5 °F 29.93 in NE 2.0 mph 6.0 mph 74% 0.00 in
23:24 30.6 °F 23.3 °F 29.93 in NE 2.0 mph 6.0 mph 74% 0.00 in
23:29 30.5 °F 23.5 °F 29.93 in ENE 2.0 mph 5.0 mph 75% 0.00 in
23:34 30.4 °F 23.4 °F 29.92 in ENE 2.0 mph 5.0 mph 75% 0.00 in
23:39 30.5 °F 23.2 °F 29.92 in ENE 2.0 mph 5.0 mph 74% 0.00 in
23:44 30.4 °F 23.1 °F 29.92 in ENE 1.0 mph 5.0 mph 74% 0.00 in
23:49 30.3 °F 23.0 °F 29.92 in ENE 1.0 mph 3.0 mph 74% 0.00 in
23:54 30.4 °F 23.1 °F 29.92 in ENE 2.0 mph 5.0 mph 74% 0.00 in
23:59 30.2 °F 22.9 °F 29.91 in ENE 1.0 mph 4.0 mph 74% 0.00 in
Buffalo, New York, USA
Compliments of Weather Underground - 2.5 mb